createdAt,value
2023-05-08T00:01:16.729Z,100598.03
2023-05-08T00:03:45.023Z,100604.84
2023-05-08T00:06:13.989Z,100596.84
2023-05-08T00:08:42.044Z,100602.13
2023-05-08T00:11:09.955Z,100598.47
2023-05-08T00:13:37.879Z,100599.34
2023-05-08T00:16:05.985Z,100604.22
2023-05-08T00:18:34.076Z,100599.44
2023-05-08T00:21:01.976Z,100605.31
2023-05-08T00:23:29.900Z,100602.38
2023-05-08T00:25:58.700Z,100604.25
2023-05-08T00:28:26.794Z,100609.81
2023-05-08T00:30:55.030Z,100613.41
2023-05-08T00:33:23.176Z,100608.88
2023-05-08T00:35:51.732Z,100608.88
2023-05-08T00:38:19.699Z,100615.00
2023-05-08T00:40:47.861Z,100609.38
2023-05-08T00:43:16.447Z,100613.84
2023-05-08T00:45:44.368Z,100611.50
2023-05-08T00:48:13.266Z,100613.94
2023-05-08T00:50:41.996Z,100618.69
2023-05-08T00:53:13.178Z,100610.69
2023-05-08T00:55:41.211Z,100618.19
2023-05-08T00:58:11.061Z,100616.88
2023-05-08T01:00:42.050Z,100616.66
2023-05-08T01:03:10.644Z,100624.00
2023-05-08T01:05:38.686Z,100626.06
2023-05-08T01:08:06.937Z,100633.44
2023-05-08T01:11:15.335Z,100638.69
2023-05-08T01:14:16.576Z,100630.63
2023-05-08T01:17:11.697Z,100642.97
2023-05-08T01:20:07.586Z,100637.19
2023-05-08T01:22:55.188Z,100642.88
2023-05-08T01:25:55.868Z,100638.38
2023-05-08T01:29:04.497Z,100649.91
2023-05-08T01:32:03.128Z,100648.53
2023-05-08T01:34:38.471Z,100650.38
2023-05-08T01:37:18.748Z,100652.41
2023-05-08T01:39:50.440Z,100654.25
2023-05-08T01:42:46.628Z,100647.56
2023-05-08T01:45:30.660Z,100650.66
2023-05-08T01:48:09.640Z,100648.16
2023-05-08T01:50:49.816Z,100655.19
2023-05-08T01:53:29.818Z,100665.59
2023-05-08T01:56:08.358Z,100664.88
2023-05-08T01:58:37.567Z,100664.66
2023-05-08T02:01:06.338Z,100663.91
2023-05-08T02:03:37.411Z,100667.28
2023-05-08T02:06:08.596Z,100661.00
2023-05-08T02:08:37.678Z,100666.66
2023-05-08T02:11:07.103Z,100663.13
2023-05-08T02:13:37.453Z,100660.34
2023-05-08T02:16:09.233Z,100666.63
2023-05-08T02:18:39.189Z,100659.50
2023-05-08T02:21:09.569Z,100662.03
2023-05-08T02:23:38.419Z,100660.53
2023-05-08T02:26:06.747Z,100659.69
2023-05-08T02:28:36.818Z,100656.22
2023-05-08T02:31:07.105Z,100667.22
2023-05-08T02:33:37.444Z,100676.50
2023-05-08T02:36:06.196Z,100671.44
2023-05-08T02:38:37.758Z,100673.13
2023-05-08T02:41:08.173Z,100674.53
2023-05-08T02:43:36.781Z,100678.81
2023-05-08T02:46:19.062Z,100674.88
2023-05-08T02:49:12.566Z,100680.91
2023-05-08T02:51:53.324Z,100672.97
2023-05-08T02:54:37.260Z,100680.97
2023-05-08T02:57:27.045Z,100679.09
2023-05-08T03:00:03.793Z,100683.47
2023-05-08T03:02:41.376Z,100687.47
2023-05-08T03:05:26.262Z,100688.06
2023-05-08T03:07:57.602Z,100692.53
2023-05-08T03:10:33.543Z,100688.13
2023-05-08T03:13:07.456Z,100691.34
2023-05-08T03:15:45.690Z,100687.97
2023-05-08T03:18:21.388Z,100693.31
2023-05-08T03:20:55.144Z,100690.38
2023-05-08T03:23:26.448Z,100696.66
2023-05-08T03:25:57.920Z,100699.03
2023-05-08T03:28:27.989Z,100700.81
2023-05-08T03:30:59.638Z,100700.66
2023-05-08T03:33:29.539Z,100706.72
2023-05-08T03:36:00.243Z,100700.66
2023-05-08T03:38:29.112Z,100702.91
2023-05-08T03:40:59.378Z,100709.03
2023-05-08T03:43:30.337Z,100701.66
2023-05-08T03:45:59.080Z,100703.34
2023-05-08T03:48:29.159Z,100707.47
2023-05-08T03:51:01.186Z,100705.91
2023-05-08T03:53:31.850Z,100708.22
2023-05-08T03:56:02.085Z,100704.34
2023-05-08T03:58:47.230Z,100705.84
2023-05-08T04:01:31.880Z,100712.38
2023-05-08T04:04:17.797Z,100720.78
2023-05-08T04:07:18.656Z,100720.06
2023-05-08T04:10:12.015Z,100725.69
2023-05-08T04:13:08.540Z,100723.56
2023-05-08T04:16:01.204Z,100722.81
2023-05-08T04:18:30.764Z,100730.59
2023-05-08T04:21:06.012Z,100732.50
2023-05-08T04:23:35.536Z,100725.78
2023-05-08T04:26:07.188Z,100738.50
2023-05-08T04:28:35.624Z,100738.63
2023-05-08T04:31:05.222Z,100741.94
2023-05-08T04:33:35.823Z,100746.25
2023-05-08T04:36:05.300Z,100742.25
2023-05-08T04:38:38.300Z,100753.78
2023-05-08T04:41:08.653Z,100755.66
2023-05-08T04:43:37.671Z,100751.16
2023-05-08T04:46:08.429Z,100741.84
2023-05-08T04:48:36.797Z,100739.19
2023-05-08T04:51:05.128Z,100740.31
2023-05-08T04:53:33.646Z,100744.25
2023-05-08T04:56:02.674Z,100735.69
2023-05-08T04:58:31.015Z,100735.03
2023-05-08T05:01:04.164Z,100727.78
2023-05-08T05:03:34.546Z,100724.66
2023-05-08T05:06:02.871Z,100728.09
2023-05-08T05:08:31.565Z,100719.09
2023-05-08T05:11:00.393Z,100716.31
2023-05-08T05:13:29.154Z,100706.59
2023-05-08T05:16:00.429Z,100708.72
2023-05-08T05:18:28.838Z,100709.19
2023-05-08T05:20:59.595Z,100705.38
2023-05-08T05:23:31.062Z,100699.88
2023-05-08T05:26:00.018Z,100710.22
2023-05-08T05:28:29.235Z,100710.78
2023-05-08T05:30:57.730Z,100715.25
2023-05-08T05:33:25.877Z,100705.25
2023-05-08T05:35:54.012Z,100708.34
2023-05-08T05:38:22.193Z,100708.34
2023-05-08T05:40:50.478Z,100699.59
2023-05-08T05:43:19.178Z,100707.25
2023-05-08T05:45:47.242Z,100696.41
2023-05-08T05:48:15.713Z,100706.63
2023-05-08T05:50:44.427Z,100696.69
2023-05-08T05:53:13.274Z,100696.56
2023-05-08T05:55:41.819Z,100696.75
2023-05-08T05:58:10.283Z,100681.03
2023-05-08T06:00:38.460Z,100679.47
2023-05-08T06:03:06.642Z,100681.41
2023-05-08T06:05:34.882Z,100678.06
2023-05-08T06:08:03.178Z,100672.63
2023-05-08T06:10:31.138Z,100670.59
2023-05-08T06:12:59.166Z,100684.00
2023-05-08T06:15:28.769Z,100673.25
2023-05-08T06:17:57.235Z,100669.28
2023-05-08T06:20:26.410Z,100669.91
2023-05-08T06:22:55.053Z,100677.63
2023-05-08T06:25:23.132Z,100682.47
2023-05-08T06:27:51.158Z,100672.44
2023-05-08T06:30:19.381Z,100674.22
2023-05-08T06:32:47.649Z,100673.41
2023-05-08T06:35:18.649Z,100667.44
2023-05-08T06:37:47.401Z,100668.31
2023-05-08T06:40:15.397Z,100672.31
2023-05-08T06:42:43.389Z,100666.13
2023-05-08T06:45:13.312Z,100671.78
2023-05-08T06:47:41.902Z,100673.25
2023-05-08T06:50:10.812Z,100674.59
2023-05-08T06:52:39.162Z,100671.19
2023-05-08T06:55:07.671Z,100663.34
2023-05-08T06:57:36.393Z,100668.06
2023-05-08T07:00:05.069Z,100679.06
2023-05-08T07:02:33.141Z,100677.34
2023-05-08T07:05:01.281Z,100671.66
2023-05-08T07:07:29.612Z,100671.06
2023-05-08T07:09:57.585Z,100679.56
2023-05-08T07:12:25.594Z,100686.00
2023-05-08T07:14:55.851Z,100677.75
2023-05-08T07:17:24.780Z,100677.53
2023-05-08T07:19:53.223Z,100671.16
2023-05-08T07:22:22.182Z,100662.31
2023-05-08T07:24:50.627Z,100659.28
2023-05-08T07:27:18.907Z,100679.25
2023-05-08T07:29:47.308Z,100673.56
2023-05-08T07:32:15.610Z,100664.56
2023-05-08T07:34:43.921Z,100673.31
2023-05-08T07:37:13.408Z,100673.34
2023-05-08T07:39:41.368Z,100670.59
2023-05-08T07:42:09.298Z,100660.81
2023-05-08T07:44:43.656Z,100661.41
2023-05-08T07:47:18.728Z,100651.59
2023-05-08T07:49:46.774Z,100643.66
2023-05-08T07:52:14.632Z,100653.22
2023-05-08T07:54:42.802Z,100653.28
2023-05-08T07:57:11.703Z,100663.84
2023-05-08T07:59:39.700Z,100663.09
2023-05-08T08:02:07.686Z,100669.66
2023-05-08T08:04:35.954Z,100675.16
2023-05-08T08:07:03.957Z,100669.22
2023-05-08T08:09:32.425Z,100673.59
2023-05-08T08:12:00.951Z,100671.38
2023-05-08T08:14:28.845Z,100668.31
2023-05-08T08:16:56.821Z,100663.06
2023-05-08T08:19:24.973Z,100659.19
2023-05-08T08:21:52.953Z,100656.22
2023-05-08T08:24:21.201Z,100664.06
2023-05-08T08:26:49.979Z,100668.63
2023-05-08T08:29:17.942Z,100673.94
2023-05-08T08:31:46.095Z,100676.84
2023-05-08T08:34:14.714Z,100668.28
2023-05-08T08:36:42.772Z,100661.41
2023-05-08T08:39:12.960Z,100666.53
2023-05-08T08:41:42.305Z,100649.91
2023-05-08T08:44:10.460Z,100641.78
2023-05-08T08:46:47.686Z,100629.66
2023-05-08T08:49:29.804Z,100630.59
2023-05-08T08:52:19.763Z,100647.16
2023-05-08T08:54:49.698Z,100643.34
2023-05-08T08:57:20.455Z,100649.50
2023-05-08T08:59:49.626Z,100629.47
2023-05-08T09:02:19.647Z,100643.72
2023-05-08T09:04:50.613Z,100649.41
2023-05-08T09:07:19.631Z,100639.22
2023-05-08T09:09:48.849Z,100632.31
2023-05-08T09:12:17.004Z,100623.63
2023-05-08T09:14:45.070Z,100635.84
2023-05-08T09:17:13.111Z,100625.31
2023-05-08T09:19:42.382Z,100630.03
2023-05-08T09:22:11.946Z,100628.97
2023-05-08T09:25:00.038Z,100623.69
2023-05-08T09:27:30.901Z,100618.34
2023-05-08T09:30:11.162Z,100635.63
2023-05-08T09:32:45.745Z,100629.75
2023-05-08T09:35:14.481Z,100637.25
2023-05-08T09:37:43.809Z,100636.16
2023-05-08T09:40:23.017Z,100623.53
2023-05-08T09:42:51.316Z,100634.38
2023-05-08T09:45:35.754Z,100630.31
2023-05-08T09:48:04.215Z,100620.66
2023-05-08T09:50:33.668Z,100616.69
2023-05-08T09:53:02.071Z,100615.84
2023-05-08T09:55:47.623Z,100621.69
2023-05-08T09:58:16.020Z,100623.47
2023-05-08T10:00:45.652Z,100628.09
2023-05-08T10:03:14.545Z,100632.88
2023-05-08T10:05:42.779Z,100632.47
2023-05-08T10:08:26.670Z,100608.38
2023-05-08T10:10:54.843Z,100613.63
2023-05-08T10:13:22.776Z,100609.47
2023-05-08T10:15:55.273Z,100609.84
2023-05-08T10:18:29.900Z,100596.91
2023-05-08T10:21:03.343Z,100595.66
2023-05-08T10:23:34.000Z,100605.72
2023-05-08T10:26:16.797Z,100622.66
2023-05-08T10:28:59.496Z,100621.09
2023-05-08T10:31:36.564Z,100623.66
2023-05-08T10:34:06.150Z,100615.00
2023-05-08T10:36:35.890Z,100606.63
2023-05-08T10:39:05.395Z,100589.19
2023-05-08T10:41:33.615Z,100602.56
2023-05-08T10:44:03.446Z,100593.59
2023-05-08T10:46:58.458Z,100597.31
2023-05-08T10:49:45.955Z,100601.72
2023-05-08T10:52:27.663Z,100597.66
2023-05-08T10:55:04.982Z,100606.44
2023-05-08T10:57:33.348Z,100605.59
2023-05-08T11:00:01.565Z,100607.13
2023-05-08T11:02:32.977Z,100604.44
2023-05-08T11:05:20.660Z,100606.72
2023-05-08T11:07:59.583Z,100612.69
2023-05-08T11:10:40.286Z,100596.34
2023-05-08T11:13:09.771Z,100601.25
2023-05-08T11:15:40.504Z,100601.41
2023-05-08T11:18:12.139Z,100600.66
2023-05-08T11:20:57.520Z,100606.03
2023-05-08T11:23:31.352Z,100581.97
2023-05-08T11:26:16.632Z,100576.03
2023-05-08T11:28:53.931Z,100575.84
2023-05-08T11:31:22.648Z,100577.16
2023-05-08T11:33:51.242Z,100572.59
2023-05-08T11:36:22.908Z,100555.41
2023-05-08T11:39:13.092Z,100561.97
2023-05-08T11:41:41.341Z,100567.28
2023-05-08T11:44:23.929Z,100573.19
2023-05-08T11:46:56.298Z,100575.34
2023-05-08T11:49:29.736Z,100576.91
2023-05-08T11:51:59.962Z,100574.72
2023-05-08T11:54:31.772Z,100560.94
2023-05-08T11:57:00.205Z,100582.00
2023-05-08T11:59:28.763Z,100581.66
2023-05-08T12:02:07.795Z,100572.88
2023-05-08T12:04:47.892Z,100590.34
2023-05-08T12:07:16.565Z,100577.09
2023-05-08T12:09:46.387Z,100572.53
2023-05-08T12:12:14.734Z,100585.03
2023-05-08T12:14:42.893Z,100582.66
2023-05-08T12:17:11.213Z,100587.25
2023-05-08T12:19:40.194Z,100582.03
2023-05-08T12:22:09.905Z,100584.53
2023-05-08T12:24:39.634Z,100589.63
2023-05-08T12:27:08.735Z,100597.31
2023-05-08T12:29:37.763Z,100592.81
2023-05-08T12:32:06.062Z,100587.47
2023-05-08T12:34:35.930Z,100595.91
2023-05-08T12:37:05.409Z,100593.56
2023-05-08T12:39:41.565Z,100564.78
2023-05-08T12:42:10.045Z,100565.56
2023-05-08T12:44:38.251Z,100571.72
2023-05-08T12:47:06.990Z,100571.78
2023-05-08T12:49:35.060Z,100576.66
2023-05-08T12:52:09.641Z,100568.41
2023-05-08T12:54:47.143Z,100589.44
2023-05-08T12:57:18.035Z,100573.88
2023-05-08T12:59:47.251Z,100590.38
2023-05-08T13:02:24.330Z,100578.38
2023-05-08T13:04:56.204Z,100569.38
2023-05-08T13:07:24.546Z,100561.69
2023-05-08T13:10:05.156Z,100566.75
2023-05-08T13:12:34.224Z,100568.31
2023-05-08T13:15:05.119Z,100576.16
2023-05-08T13:17:34.517Z,100567.50
2023-05-08T13:20:06.260Z,100579.25
2023-05-08T13:22:34.611Z,100569.16
2023-05-08T13:25:04.300Z,100581.72
2023-05-08T13:27:33.077Z,100570.44
2023-05-08T13:30:02.472Z,100563.56
2023-05-08T13:32:30.984Z,100553.78
2023-05-08T13:35:00.981Z,100552.25
2023-05-08T13:37:30.651Z,100545.34
2023-05-08T13:39:59.094Z,100542.25
2023-05-08T13:42:28.195Z,100531.53
2023-05-08T13:44:57.977Z,100528.28
2023-05-08T13:47:27.472Z,100521.38
2023-05-08T13:49:55.626Z,100538.03
2023-05-08T13:52:24.076Z,100519.25
2023-05-08T13:54:52.214Z,100514.50
2023-05-08T13:57:20.320Z,100520.97
2023-05-08T13:59:49.427Z,100530.81
2023-05-08T14:02:17.871Z,100543.03
2023-05-08T14:04:46.501Z,100530.06
2023-05-08T14:07:16.881Z,100548.28
2023-05-08T14:09:45.866Z,100545.63
2023-05-08T14:12:14.099Z,100562.06
2023-05-08T14:14:42.249Z,100559.88
2023-05-08T14:17:10.863Z,100560.34
2023-05-08T14:19:39.160Z,100552.25
2023-05-08T14:22:07.337Z,100540.22
2023-05-08T14:24:35.521Z,100536.09
2023-05-08T14:27:06.808Z,100526.97
2023-05-08T14:29:35.881Z,100529.13
2023-05-08T14:32:04.108Z,100522.69
2023-05-08T14:34:32.143Z,100530.47
2023-05-08T14:37:00.175Z,100538.22
2023-05-08T14:39:28.282Z,100533.03
2023-05-08T14:42:18.335Z,100525.47
2023-05-08T14:44:44.563Z,100534.56
2023-05-08T14:47:12.533Z,100527.97
2023-05-08T14:49:40.473Z,100529.19
2023-05-08T14:52:08.923Z,100528.72
2023-05-08T14:54:37.039Z,100520.41
2023-05-08T14:57:05.073Z,100510.06
2023-05-08T14:59:33.954Z,100514.56
2023-05-08T15:02:02.093Z,100520.59
2023-05-08T15:04:30.052Z,100518.00
2023-05-08T15:06:58.147Z,100517.38
2023-05-08T15:09:26.111Z,100529.22
2023-05-08T15:11:54.083Z,100524.53
2023-05-08T15:14:22.437Z,100534.44
2023-05-08T15:16:50.601Z,100539.09
2023-05-08T15:19:18.752Z,100543.84
2023-05-08T15:21:46.985Z,100543.50
2023-05-08T15:24:14.886Z,100546.94
2023-05-08T15:26:42.875Z,100544.84
2023-05-08T15:29:11.322Z,100540.81
2023-05-08T15:31:39.874Z,100541.31
2023-05-08T15:34:07.863Z,100547.53
2023-05-08T15:36:36.115Z,100544.97
2023-05-08T15:39:04.232Z,100519.88
2023-05-08T15:41:32.322Z,100518.19
2023-05-08T15:44:00.634Z,100511.66
2023-05-08T15:46:28.602Z,100507.25
2023-05-08T15:48:56.562Z,100515.91
2023-05-08T15:51:24.949Z,100517.03
2023-05-08T15:53:53.077Z,100517.56
2023-05-08T15:56:24.583Z,100531.44
2023-05-08T15:58:53.591Z,100537.75
2023-05-08T16:01:21.732Z,100533.59
2023-05-08T16:03:49.698Z,100547.13
2023-05-08T16:06:18.013Z,100548.44
2023-05-08T16:08:46.007Z,100556.00
2023-05-08T16:11:13.928Z,100561.13
2023-05-08T16:13:42.338Z,100560.50
2023-05-08T16:16:10.303Z,100567.31
2023-05-08T16:18:38.332Z,100569.59
2023-05-08T16:21:10.738Z,100576.56
2023-05-08T16:23:39.222Z,100571.19
2023-05-08T16:26:07.167Z,100574.72
2023-05-08T16:28:35.416Z,100580.56
2023-05-08T16:31:05.060Z,100586.41
2023-05-08T16:33:36.387Z,100570.78
2023-05-08T16:36:04.866Z,100572.00
2023-05-08T16:38:33.344Z,100551.75
2023-05-08T16:41:06.677Z,100558.13
2023-05-08T16:43:35.059Z,100555.03
2023-05-08T16:46:05.560Z,100560.72
2023-05-08T16:48:34.227Z,100568.56
2023-05-08T16:51:02.107Z,100575.31
2023-05-08T16:53:31.975Z,100581.09
2023-05-08T16:56:00.913Z,100578.84
2023-05-08T16:58:28.904Z,100571.97
2023-05-08T17:00:56.897Z,100572.28
2023-05-08T17:03:25.740Z,100566.00
2023-05-08T17:05:53.957Z,100553.88
2023-05-08T17:08:22.390Z,100545.28
2023-05-08T17:10:51.711Z,100559.56
2023-05-08T17:13:20.298Z,100573.50
2023-05-08T17:15:49.221Z,100577.47
2023-05-08T17:18:17.911Z,100579.81
2023-05-08T17:20:45.829Z,100571.63
2023-05-08T17:23:13.849Z,100580.75
2023-05-08T17:25:43.650Z,100584.94
2023-05-08T17:28:11.684Z,100591.25
2023-05-08T17:30:40.363Z,100606.22
2023-05-08T17:33:08.900Z,100620.25
2023-05-08T17:35:37.048Z,100627.13
2023-05-08T17:38:05.133Z,100622.44
2023-05-08T17:40:33.420Z,100622.69
2023-05-08T17:43:01.336Z,100625.75
2023-05-08T17:45:29.282Z,100626.84
2023-05-08T17:47:57.641Z,100623.69
2023-05-08T17:50:25.905Z,100633.69
2023-05-08T17:52:53.918Z,100629.84
2023-05-08T17:55:22.282Z,100627.38
2023-05-08T17:57:50.175Z,100630.53
2023-05-08T18:00:18.474Z,100622.78
2023-05-08T18:02:46.922Z,100633.66
2023-05-08T18:05:15.939Z,100643.47
2023-05-08T18:07:44.269Z,100642.09
2023-05-08T18:10:12.646Z,100644.97
2023-05-08T18:12:41.052Z,100653.31
2023-05-08T18:15:09.966Z,100656.09
2023-05-08T18:17:38.456Z,100663.66
2023-05-08T18:20:08.635Z,100670.88
2023-05-08T18:22:36.819Z,100670.00
2023-05-08T18:25:05.555Z,100678.94
2023-05-08T18:27:34.610Z,100680.22
2023-05-08T18:30:02.747Z,100676.44
2023-05-08T18:32:31.241Z,100679.81
2023-05-08T18:34:59.439Z,100683.97
2023-05-08T18:37:28.403Z,100687.41
2023-05-08T18:39:56.785Z,100702.69
2023-05-08T18:42:24.756Z,100696.88
2023-05-08T18:44:55.063Z,100701.13
2023-05-08T18:47:23.525Z,100698.97
2023-05-08T18:49:52.826Z,100704.25
2023-05-08T18:52:20.777Z,100701.16
2023-05-08T18:54:49.403Z,100701.47
2023-05-08T18:57:18.032Z,100704.22
2023-05-08T18:59:46.229Z,100700.47
2023-05-08T19:02:14.802Z,100693.88
2023-05-08T19:04:42.949Z,100708.81
2023-05-08T19:07:11.123Z,100707.28
2023-05-08T19:09:39.667Z,100705.44
2023-05-08T19:12:07.787Z,100714.75
2023-05-08T19:14:36.767Z,100707.94
2023-05-08T19:17:05.127Z,100713.44
2023-05-08T19:19:33.510Z,100709.47
2023-05-08T19:22:01.990Z,100713.84
2023-05-08T19:24:32.264Z,100711.88
2023-05-08T19:27:01.162Z,100709.31
2023-05-08T19:29:29.480Z,100708.56
2023-05-08T19:31:57.922Z,100712.72
2023-05-08T19:34:26.989Z,100714.72
2023-05-08T19:36:55.622Z,100712.50
2023-05-08T19:39:24.595Z,100715.91
2023-05-08T19:41:52.883Z,100717.69
2023-05-08T19:44:21.050Z,100708.91
2023-05-08T19:46:51.652Z,100708.13
2023-05-08T19:49:19.942Z,100699.81
2023-05-08T19:51:49.849Z,100702.75
2023-05-08T19:54:18.030Z,100703.00
2023-05-08T19:56:46.696Z,100711.41
2023-05-08T19:59:14.687Z,100715.31
2023-05-08T20:01:43.740Z,100710.97
2023-05-08T20:04:12.179Z,100706.72
2023-05-08T20:06:40.630Z,100711.34
2023-05-08T20:09:09.064Z,100710.91
2023-05-08T20:11:37.826Z,100705.22
2023-05-08T20:14:05.921Z,100702.75
2023-05-08T20:16:35.564Z,100709.06
2023-05-08T20:19:03.847Z,100697.59
2023-05-08T20:21:33.963Z,100695.84
2023-05-08T20:24:01.978Z,100708.31
2023-05-08T20:26:30.889Z,100705.16
2023-05-08T20:29:00.243Z,100710.38
2023-05-08T20:31:30.905Z,100705.69
2023-05-08T20:33:59.790Z,100708.31
2023-05-08T20:36:28.197Z,100707.03
2023-05-08T20:38:57.189Z,100709.13
2023-05-08T20:41:25.772Z,100702.25
2023-05-08T20:43:53.921Z,100706.16
2023-05-08T20:46:22.012Z,100699.34
2023-05-08T20:48:51.315Z,100703.31
2023-05-08T20:51:19.491Z,100696.00
2023-05-08T20:53:47.809Z,100697.28
2023-05-08T20:56:18.934Z,100699.09
2023-05-08T20:58:47.804Z,100704.34
2023-05-08T21:01:16.559Z,100701.13
2023-05-08T21:03:45.493Z,100691.97
2023-05-08T21:06:13.638Z,100696.88
2023-05-08T21:08:41.843Z,100698.91
2023-05-08T21:11:11.542Z,100702.50
2023-05-08T21:13:39.583Z,100706.53
2023-05-08T21:16:08.446Z,100706.25
2023-05-08T21:18:36.775Z,100711.28
2023-05-08T21:21:04.769Z,100710.75
2023-05-08T21:23:33.398Z,100712.69
2023-05-08T21:26:01.321Z,100706.00
2023-05-08T21:28:29.291Z,100705.72
2023-05-08T21:30:57.292Z,100706.72
2023-05-08T21:33:25.685Z,100712.44
2023-05-08T21:35:54.085Z,100705.84
2023-05-08T21:38:22.252Z,100706.63
2023-05-08T21:40:50.237Z,100712.34
2023-05-08T21:43:18.676Z,100708.94
2023-05-08T21:45:46.818Z,100706.53
2023-05-08T21:48:14.745Z,100714.69
2023-05-08T21:50:42.777Z,100711.25
2023-05-08T21:53:10.978Z,100712.03
2023-05-08T21:55:38.874Z,100705.66
2023-05-08T21:58:08.444Z,100706.97
2023-05-08T22:00:36.588Z,100709.22
2023-05-08T22:03:04.779Z,100710.91
2023-05-08T22:05:33.091Z,100706.81
2023-05-08T22:08:01.144Z,100708.16
2023-05-08T22:10:29.408Z,100704.88
2023-05-08T22:12:57.748Z,100699.84
2023-05-08T22:15:30.135Z,100707.44
2023-05-08T22:18:00.417Z,100708.59
2023-05-08T22:20:28.806Z,100702.78
2023-05-08T22:22:56.706Z,100707.47
2023-05-08T22:25:25.737Z,100705.84
2023-05-08T22:27:53.793Z,100708.81
2023-05-08T22:30:21.842Z,100699.25
2023-05-08T22:32:56.443Z,100695.19
2023-05-08T22:35:27.359Z,100687.53
2023-05-08T22:37:57.522Z,100693.22
2023-05-08T22:40:26.319Z,100697.75
2023-05-08T22:42:56.006Z,100685.66
2023-05-08T22:45:24.287Z,100690.78
2023-05-08T22:47:52.462Z,100689.66
2023-05-08T22:50:20.563Z,100694.03
2023-05-08T22:52:48.908Z,100685.97
2023-05-08T22:55:17.394Z,100688.06
2023-05-08T22:57:45.958Z,100682.00
2023-05-08T23:00:16.466Z,100679.28
2023-05-08T23:02:44.985Z,100684.94
2023-05-08T23:05:13.210Z,100690.22
2023-05-08T23:07:41.499Z,100686.94
2023-05-08T23:10:09.988Z,100681.13
2023-05-08T23:12:37.867Z,100679.38
2023-05-08T23:15:07.700Z,100684.88
2023-05-08T23:17:35.808Z,100687.91
2023-05-08T23:20:05.041Z,100687.00
2023-05-08T23:22:33.291Z,100677.53
2023-05-08T23:25:01.149Z,100676.56
2023-05-08T23:27:29.056Z,100682.16
2023-05-08T23:29:57.365Z,100681.25
2023-05-08T23:32:25.284Z,100681.44
2023-05-08T23:34:53.328Z,100685.19
2023-05-08T23:37:22.003Z,100681.13
2023-05-08T23:39:49.878Z,100682.63
2023-05-08T23:42:17.809Z,100679.34
2023-05-08T23:44:46.193Z,100681.31
2023-05-08T23:47:14.334Z,100682.22
2023-05-08T23:49:42.273Z,100686.22
2023-05-08T23:52:10.528Z,100686.09
2023-05-08T23:54:38.405Z,100678.34
2023-05-08T23:57:06.511Z,100674.94
2023-05-08T23:59:34.736Z,100670.81
